Time;durP1;ratioP1;P1;durP2;ratioP2;P2;SDS_P1;SDS_P2;PMS_P1;PMS_P2;Temp;Humidity;BMP_temperature;BMP_pressure;BME280_temperature;BME280_humidity;BME280_pressure;Samples;Min_cycle;Max_cycle;Signal;HPM_P1;HPM_P2
2022/01/05 00:00:04;;;;;;;4.10;1.40;;;7.10;81.40;;;;;;5004013;28;20096;-50
2022/01/05 00:02:31;;;;;;;6.50;2.10;;;7.10;81.50;;;;;;5012289;28;20069;-51
2022/01/05 00:04:58;;;;;;;3.67;1.30;;;7.10;81.50;;;;;;4993959;28;20038;-48
2022/01/05 00:07:24;;;;;;;4.82;1.40;;;7.10;81.50;;;;;;5005003;28;20045;-51
2022/01/05 00:09:51;;;;;;;3.55;1.58;;;7.10;81.60;;;;;;5004615;28;20042;-50
2022/01/05 00:12:20;;;;;;;4.07;1.48;;;7.10;81.50;;;;;;4973429;28;20739;-49
2022/01/05 00:14:47;;;;;;;4.10;1.80;;;7.20;81.60;;;;;;4987596;28;20063;-51
2022/01/05 00:17:14;;;;;;;4.78;2.38;;;7.20;81.60;;;;;;4992906;28;20054;-50
2022/01/05 00:19:41;;;;;;;3.28;1.70;;;7.20;81.50;;;;;;4982831;28;20062;-49
2022/01/05 00:22:08;;;;;;;5.05;2.28;;;7.20;81.40;;;;;;5002297;28;20049;-51
2022/01/05 00:24:36;;;;;;;7.25;2.30;;;7.20;81.30;;;;;;5011379;28;20076;-51
2022/01/05 00:27:04;;;;;;;3.72;2.58;;;7.20;81.20;;;;;;5009479;28;20073;-49
2022/01/05 00:29:31;;;;;;;8.80;4.30;;;7.20;81.20;;;;;;4997141;28;20048;-51
2022/01/05 00:31:58;;;;;;;7.95;5.03;;;7.20;81.20;;;;;;4999157;28;20047;-50
2022/01/05 00:34:25;;;;;;;7.00;3.83;;;7.20;81.20;;;;;;4997505;28;20049;-49
2022/01/05 00:36:52;;;;;;;6.40;4.00;;;7.20;81.30;;;;;;5002198;28;20037;-50
2022/01/05 00:39:18;;;;;;;5.88;3.60;;;7.20;81.20;;;;;;5011194;28;20057;-49
2022/01/05 00:41:47;;;;;;;8.43;3.60;;;7.20;81.20;;;;;;4997082;28;20075;-51
2022/01/05 00:44:14;;;;;;;6.25;3.28;;;7.20;81.20;;;;;;5002235;28;20100;-47
2022/01/05 00:46:41;;;;;;;6.35;2.90;;;7.20;81.20;;;;;;5010048;28;20765;-49
2022/01/05 00:49:10;;;;;;;8.25;2.60;;;7.20;81.00;;;;;;4987985;28;20046;-46
2022/01/05 00:51:38;;;;;;;7.13;2.78;;;7.20;80.90;;;;;;4982701;28;20976;-47
2022/01/05 00:54:06;;;;;;;4.57;2.28;;;7.20;80.80;;;;;;4994150;28;20046;-50
2022/01/05 00:56:32;;;;;;;6.25;2.45;;;7.10;80.80;;;;;;4995800;23;20062;-84
2022/01/05 00:58:59;;;;;;;4.97;3.03;;;7.30;81.00;;;;;;4975933;28;20399;-83
2022/01/05 01:01:26;;;;;;;7.70;2.83;;;7.10;80.90;;;;;;4972441;28;20066;-83
2022/01/05 01:03:53;;;;;;;5.57;3.58;;;7.10;80.80;;;;;;4949821;28;20119;-84
2022/01/05 01:06:20;;;;;;;6.13;3.80;;;7.10;80.90;;;;;;4954296;28;20409;-83
2022/01/05 01:08:47;;;;;;;7.72;4.22;;;7.00;81.00;;;;;;4971772;28;20053;-82
2022/01/05 01:11:14;;;;;;;8.48;4.18;;;7.00;80.90;;;;;;4949260;28;20047;-82
2022/01/05 01:13:43;;;;;;;10.98;4.63;;;7.00;80.80;;;;;;4966676;28;20057;-82
2022/01/05 01:16:10;;;;;;;8.15;5.07;;;7.00;80.50;;;;;;4976102;28;20042;-82
2022/01/05 01:18:37;;;;;;;4.55;3.80;;;7.00;80.50;;;;;;4949574;28;20074;-82
2022/01/05 01:21:04;;;;;;;6.97;4.50;;;7.00;80.50;;;;;;4946830;28;20045;-82
2022/01/05 01:23:31;;;;;;;7.82;3.72;;;6.90;80.40;;;;;;4972106;28;20046;-82
2022/01/05 01:25:58;;;;;;;7.57;4.43;;;6.90;80.40;;;;;;4972324;28;20085;-82
2022/01/05 01:28:25;;;;;;;6.97;4.15;;;6.90;80.50;;;;;;4953595;28;20659;-82
2022/01/05 01:30:52;;;;;;;8.23;4.50;;;6.90;80.50;;;;;;4954046;28;20055;-82
2022/01/05 01:33:19;;;;;;;7.40;4.97;;;6.90;80.50;;;;;;4970275;28;20550;-82
2022/01/05 01:35:47;;;;;;;10.45;4.78;;;6.80;80.30;;;;;;4972314;28;20502;-82
2022/01/05 01:38:14;;;;;;;9.32;5.38;;;6.80;80.10;;;;;;4963866;28;20043;-84
2022/01/05 01:40:41;;;;;;;8.63;4.55;;;6.70;80.00;;;;;;4953501;28;20046;-83
2022/01/05 01:43:08;;;;;;;7.75;4.03;;;6.70;80.70;;;;;;4971250;28;20050;-82
2022/01/05 01:45:35;;;;;;;7.05;4.07;;;6.70;80.00;;;;;;4971059;28;20038;-82
2022/01/05 01:48:02;;;;;;;6.10;4.20;;;6.60;80.00;;;;;;4955475;28;20058;-83
2022/01/05 01:50:29;;;;;;;8.50;4.57;;;6.60;80.00;;;;;;4970479;28;20065;-82
2022/01/05 01:52:56;;;;;;;6.63;4.78;;;6.60;79.90;;;;;;4970779;28;20046;-82
2022/01/05 01:55:22;;;;;;;9.90;5.28;;;6.50;79.80;;;;;;4971354;28;20050;-83
2022/01/05 01:57:50;;;;;;;9.63;4.43;;;6.50;79.80;;;;;;4971745;28;20040;-82
2022/01/05 02:00:17;;;;;;;7.15;4.15;;;6.50;79.80;;;;;;4977665;28;20043;-83
2022/01/05 02:02:45;;;;;;;10.05;5.47;;;6.40;79.80;;;;;;4970860;28;20069;-82
2022/01/05 02:05:13;;;;;;;6.78;4.32;;;6.30;79.70;;;;;;4961164;28;20043;-82
2022/01/05 02:07:40;;;;;;;7.95;5.22;;;6.30;79.70;;;;;;4967561;28;20053;-82
2022/01/05 02:10:09;;;;;;;8.75;5.03;;;6.30;79.70;;;;;;4966389;28;20054;-83
2022/01/05 02:12:36;;;;;;;7.90;5.15;;;6.30;79.80;;;;;;4971500;28;20061;-83
2022/01/05 02:15:04;;;;;;;11.77;5.05;;;6.20;80.40;;;;;;4962006;28;20058;-83
2022/01/05 02:17:45;;;;;;;13.18;5.38;;;6.20;79.70;;;;;;4953034;28;20557;-83
2022/01/05 02:20:21;;;;;;;8.95;4.57;;;6.20;79.80;;;;;;4968588;28;20057;-83
2022/01/05 02:22:48;;;;;;;9.23;4.63;;;6.20;79.80;;;;;;4987633;28;20042;-83
2022/01/05 02:25:15;;;;;;;9.57;4.38;;;6.10;79.70;;;;;;4962595;28;20043;-83
2022/01/05 02:27:45;;;;;;;9.07;4.55;;;6.10;79.60;;;;;;4960701;28;20421;-83
2022/01/05 02:30:17;;;;;;;6.60;4.05;;;6.10;79.60;;;;;;4990009;28;20050;-83
2022/01/05 02:32:44;;;;;;;8.75;3.90;;;6.00;79.60;;;;;;4992486;28;20078;-83
2022/01/05 02:35:11;;;;;;;7.30;3.80;;;6.00;79.70;;;;;;4960273;28;20058;-83
2022/01/05 02:37:43;;;;;;;6.05;3.17;;;6.00;79.60;;;;;;4977869;28;20303;-83
2022/01/05 02:40:12;;;;;;;4.93;2.50;;;6.00;79.60;;;;;;4978570;28;20050;-83
2022/01/05 02:42:39;;;;;;;9.60;2.95;;;5.90;79.60;;;;;;4983859;28;20085;-82
2022/01/05 02:45:06;;;;;;;5.75;2.67;;;5.90;79.60;;;;;;4953240;28;20055;-81
2022/01/05 02:47:33;;;;;;;6.78;2.78;;;5.90;79.50;;;;;;4987660;28;20042;-82
2022/01/05 02:50:01;;;;;;;6.47;2.90;;;5.90;79.60;;;;;;4977942;28;20486;-82
2022/01/05 02:52:28;;;;;;;8.18;2.40;;;5.80;79.50;;;;;;4982973;28;20034;-82
2022/01/05 02:54:55;;;;;;;10.75;3.30;;;5.80;79.40;;;;;;4971936;28;20498;-82
2022/01/05 02:57:22;;;;;;;9.18;2.53;;;5.80;79.40;;;;;;4978724;28;20458;-82
2022/01/05 02:59:49;;;;;;;9.15;2.72;;;5.70;79.40;;;;;;4977322;28;20046;-82
2022/01/05 03:02:16;;;;;;;4.93;2.47;;;5.70;79.40;;;;;;4962619;28;20499;-82
2022/01/05 03:04:43;;;;;;;9.30;2.95;;;5.70;79.40;;;;;;4958507;28;20467;-82
2022/01/05 03:07:10;;;;;;;7.95;2.22;;;5.70;79.40;;;;;;4959024;28;20047;-82
2022/01/05 03:09:37;;;;;;;6.88;2.42;;;5.60;79.40;;;;;;4977426;28;20042;-82
2022/01/05 03:12:05;;;;;;;5.95;2.25;;;5.60;79.30;;;;;;4958969;28;20051;-82
2022/01/05 03:14:31;;;;;;;7.05;2.40;;;5.60;79.30;;;;;;4978718;28;20065;-82
2022/01/05 03:16:58;;;;;;;10.90;2.92;;;5.50;79.30;;;;;;4978653;28;20103;-82
2022/01/05 03:19:25;;;;;;;9.85;3.35;;;5.50;79.40;;;;;;4970419;28;20598;-82
2022/01/05 03:21:52;;;;;;;10.05;4.30;;;5.50;79.40;;;;;;4961945;28;20488;-82
2022/01/05 03:24:19;;;;;;;12.27;5.93;;;5.50;79.40;;;;;;4975296;28;20045;-81
2022/01/05 03:26:46;;;;;;;7.72;4.82;;;5.50;79.40;;;;;;4979731;28;20046;-82
2022/01/05 03:29:13;;;;;;;11.50;6.40;;;5.40;79.40;;;;;;4981842;28;20050;-82
2022/01/05 03:31:39;;;;;;;13.95;6.95;;;5.40;79.30;;;;;;4971865;28;20050;-81
2022/01/05 03:34:06;;;;;;;10.02;5.57;;;5.40;79.30;;;;;;4972115;28;20058;-82
2022/01/05 03:36:33;;;;;;;9.57;5.63;;;5.40;79.30;;;;;;4994863;28;20069;-83
2022/01/05 03:39:00;;;;;;;7.63;4.63;;;5.30;79.30;;;;;;4972099;28;20089;-80
2022/01/05 03:41:27;;;;;;;11.45;3.80;;;5.30;79.30;;;;;;4966616;28;20046;-79
2022/01/05 03:43:54;;;;;;;9.25;3.03;;;5.30;79.30;;;;;;4986210;28;20038;-79
2022/01/05 03:46:21;;;;;;;8.82;2.92;;;5.30;79.30;;;;;;4974941;28;20046;-80
2022/01/05 03:48:47;;;;;;;7.90;2.53;;;5.30;79.40;;;;;;4971865;28;20140;-79
2022/01/05 03:51:15;;;;;;;7.32;2.53;;;5.20;79.50;;;;;;4957351;28;20058;-79
2022/01/05 03:53:41;;;;;;;7.18;2.70;;;5.30;79.40;;;;;;4973553;28;20061;-81
2022/01/05 03:56:08;;;;;;;7.90;2.58;;;5.20;79.30;;;;;;4976167;28;20155;-81
2022/01/05 03:58:35;;;;;;;8.13;2.20;;;5.20;79.30;;;;;;4963935;28;20304;-81
2022/01/05 04:01:02;;;;;;;8.23;3.30;;;5.20;79.30;;;;;;4975317;28;20058;-81
2022/01/05 04:03:30;;;;;;;8.68;3.08;;;5.20;79.30;;;;;;4970990;28;20169;-80
2022/01/05 04:05:57;;;;;;;7.03;2.13;;;5.20;79.30;;;;;;4956867;28;20046;-78
2022/01/05 04:08:23;;;;;;;5.00;2.15;;;5.10;79.30;;;;;;4976038;28;20050;-78
2022/01/05 04:10:50;;;;;;;8.25;2.65;;;5.10;79.30;;;;;;4977606;28;20051;-80
2022/01/05 04:13:18;;;;;;;5.43;2.88;;;5.10;79.30;;;;;;4988259;28;20046;-78
2022/01/05 04:15:45;;;;;;;6.80;2.72;;;5.10;79.30;;;;;;4963521;28;20047;-76
2022/01/05 04:18:11;;;;;;;8.15;3.08;;;5.10;79.20;;;;;;4961623;28;20071;-78
2022/01/05 04:20:38;;;;;;;10.25;2.80;;;5.10;79.30;;;;;;4974012;28;20038;-77
2022/01/05 04:23:06;;;;;;;7.60;2.83;;;5.10;79.30;;;;;;4972514;28;20049;-77
2022/01/05 04:25:33;;;;;;;6.22;2.70;;;5.10;79.30;;;;;;4990672;28;20049;-79
2022/01/05 04:28:01;;;;;;;9.88;3.08;;;5.00;79.30;;;;;;4956721;28;20060;-77
2022/01/05 04:30:28;;;;;;;9.10;3.00;;;5.00;79.30;;;;;;4973937;28;20049;-77
2022/01/05 04:32:55;;;;;;;10.05;2.90;;;5.10;79.40;;;;;;4991876;28;20046;-78
2022/01/05 04:35:42;;;;;;;9.65;2.63;;;5.00;79.30;;;;;;4957013;28;20054;-77
2022/01/05 04:38:09;;;;;;;10.00;2.90;;;5.00;79.30;;;;;;4953236;28;20181;-79
2022/01/05 04:40:36;;;;;;;7.72;3.05;;;5.00;79.40;;;;;;4973882;28;20049;-77
2022/01/05 04:43:03;;;;;;;8.80;3.30;;;4.90;79.40;;;;;;4990528;28;20046;-77
2022/01/05 04:45:30;;;;;;;8.88;3.20;;;4.90;79.40;;;;;;4953997;28;20047;-79
2022/01/05 04:47:57;;;;;;;7.68;2.67;;;4.90;79.40;;;;;;4967588;28;20385;-77
2022/01/05 04:50:23;;;;;;;11.52;2.75;;;4.90;79.30;;;;;;4973425;28;20053;-77
2022/01/05 04:52:50;;;;;;;9.13;2.25;;;4.90;79.40;;;;;;4963613;28;20070;-80
2022/01/05 04:55:17;;;;;;;8.95;2.72;;;4.90;79.30;;;;;;4958567;28;20055;-77
2022/01/05 04:57:44;;;;;;;10.77;3.22;;;4.90;79.40;;;;;;4963693;28;20393;-77
2022/01/05 05:00:11;;;;;;;13.90;2.63;;;4.90;79.40;;;;;;4973505;28;20038;-77
2022/01/05 05:02:38;;;;;;;6.40;2.63;;;4.90;79.40;;;;;;4986967;28;20137;-77
2022/01/05 05:05:05;;;;;;;8.80;2.65;;;4.90;79.40;;;;;;4946022;28;20047;-80
2022/01/05 05:07:32;;;;;;;7.20;2.55;;;4.80;79.30;;;;;;4975881;28;20042;-78
2022/01/05 05:10:04;;;;;;;7.35;2.30;;;4.80;79.30;;;;;;4973183;28;20065;-78
2022/01/05 05:12:31;;;;;;;8.82;2.95;;;4.80;79.30;;;;;;4936960;28;20505;-77
2022/01/05 05:14:58;;;;;;;17.13;2.58;;;4.80;79.40;;;;;;4959245;28;20054;-80
2022/01/05 05:17:25;;;;;;;5.78;2.75;;;4.80;79.40;;;;;;4974969;28;20058;-78
2022/01/05 05:19:52;;;;;;;7.63;2.90;;;4.80;79.50;;;;;;4989375;28;20042;-80
2022/01/05 05:22:19;;;;;;;7.97;3.08;;;4.80;79.50;;;;;;4973413;28;20038;-77
2022/01/05 05:24:46;;;;;;;6.57;2.70;;;4.80;79.50;;;;;;4974024;28;20042;-79
2022/01/05 05:27:12;;;;;;;8.38;2.33;;;4.80;79.50;;;;;;4973873;28;20043;-80
2022/01/05 05:29:39;;;;;;;6.93;2.33;;;4.80;79.40;;;;;;4989896;28;20065;-80
2022/01/05 05:32:07;;;;;;;11.48;2.85;;;4.80;79.30;;;;;;4967214;28;20561;-77
2022/01/05 05:34:34;;;;;;;5.60;2.83;;;4.80;79.30;;;;;;4959547;28;20050;-78
2022/01/05 05:37:02;;;;;;;6.50;2.50;;;4.80;79.50;;;;;;4989100;28;20585;-79
2022/01/05 05:39:28;;;;;;;5.97;2.17;;;4.80;79.80;;;;;;4991080;28;20128;-77
2022/01/05 05:41:55;;;;;;;5.68;1.90;;;4.80;80.00;;;;;;4963698;28;20039;-77
2022/01/05 05:44:22;;;;;;;8.30;2.30;;;4.80;80.10;;;;;;4953758;28;20058;-78
2022/01/05 05:46:49;;;;;;;10.63;2.72;;;4.80;80.00;;;;;;4956556;28;20042;-80
2022/01/05 05:49:16;;;;;;;10.35;2.63;;;4.80;79.80;;;;;;4950324;28;20039;-79
2022/01/05 05:51:43;;;;;;;9.13;2.10;;;4.80;79.70;;;;;;4958473;28;20047;-77
2022/01/05 05:54:10;;;;;;;13.10;2.45;;;4.90;79.70;;;;;;4970507;28;20043;-81
2022/01/05 05:56:37;;;;;;;10.20;2.67;;;4.90;79.70;;;;;;4952269;28;20061;-80
2022/01/05 05:59:03;;;;;;;8.02;2.95;;;4.80;79.80;;;;;;4949604;28;20049;-78
2022/01/05 06:01:30;;;;;;;13.35;2.60;;;4.90;80.00;;;;;;4955913;28;20565;-78
2022/01/05 06:03:57;;;;;;;9.60;2.67;;;4.90;80.00;;;;;;4972544;28;20031;-77
2022/01/05 06:06:24;;;;;;;10.45;2.63;;;4.90;80.20;;;;;;4950254;28;20043;-78
2022/01/05 06:08:51;;;;;;;12.68;2.53;;;4.90;80.20;;;;;;4936571;28;20042;-81
2022/01/05 06:11:18;;;;;;;9.95;2.45;;;4.90;80.20;;;;;;4946275;28;20059;-78
2022/01/05 06:13:45;;;;;;;12.95;2.80;;;5.00;80.30;;;;;;4954687;28;20054;-77
2022/01/05 06:16:12;;;;;;;5.97;2.05;;;5.00;80.30;;;;;;4957336;28;20054;-80
2022/01/05 06:18:39;;;;;;;6.65;2.20;;;5.00;80.30;;;;;;4986776;28;20042;-78
2022/01/05 06:21:06;;;;;;;7.93;2.33;;;5.00;80.30;;;;;;4960854;28;20039;-79
2022/01/05 06:23:33;;;;;;;14.30;2.97;;;5.10;80.30;;;;;;4954194;28;20046;-79
2022/01/05 06:26:00;;;;;;;7.57;2.45;;;5.10;80.80;;;;;;4958088;28;20054;-78
2022/01/05 06:28:27;;;;;;;10.68;3.63;;;5.10;80.10;;;;;;4964194;28;20062;-79
2022/01/05 06:30:54;;;;;;;9.13;2.60;;;5.10;80.00;;;;;;4955141;28;20047;-78
2022/01/05 06:33:21;;;;;;;14.05;4.32;;;5.10;79.90;;;;;;4966168;28;20059;-78
2022/01/05 06:35:47;;;;;;;11.55;2.75;;;5.20;80.00;;;;;;4980430;28;20046;-79
2022/01/05 06:38:14;;;;;;;8.10;2.95;;;5.20;79.90;;;;;;4955520;28;20046;-79
2022/01/05 06:40:41;;;;;;;7.47;2.33;;;5.20;79.90;;;;;;4948914;28;20628;-78
2022/01/05 06:43:08;;;;;;;8.60;2.35;;;5.20;79.90;;;;;;4981049;28;20045;-77
2022/01/05 06:45:35;;;;;;;8.68;3.15;;;5.20;79.70;;;;;;4980187;28;20047;-78
2022/01/05 06:48:03;;;;;;;7.07;2.20;;;5.20;79.80;;;;;;4949295;28;20392;-77
2022/01/05 06:50:30;;;;;;;10.23;2.22;;;5.30;80.50;;;;;;4963174;28;20065;-78
2022/01/05 06:52:56;;;;;;;11.48;2.17;;;5.30;79.90;;;;;;4970033;28;20061;-78
2022/01/05 06:55:24;;;;;;;9.63;2.35;;;5.30;79.90;;;;;;4973597;28;20047;-78
2022/01/05 06:57:51;;;;;;;6.47;2.70;;;5.30;79.90;;;;;;4976144;28;20050;-79
2022/01/05 07:00:20;;;;;;;11.02;2.60;;;5.30;79.90;;;;;;4953553;28;20039;-77
2022/01/05 07:02:47;;;;;;;13.93;3.25;;;5.40;79.90;;;;;;4963192;28;20049;-78
2022/01/05 07:05:14;;;;;;;8.13;2.30;;;5.40;79.80;;;;;;4953586;28;20298;-77
2022/01/05 07:07:41;;;;;;;7.28;2.55;;;5.40;79.80;;;;;;4966438;28;20153;-78
2022/01/05 07:10:10;;;;;;;13.88;3.38;;;5.40;79.60;;;;;;4961515;28;20054;-79
2022/01/05 07:12:38;;;;;;;13.10;2.95;;;5.40;79.80;;;;;;4970601;28;20534;-79
2022/01/05 07:15:06;;;;;;;7.38;2.40;;;5.40;79.80;;;;;;4968811;28;20051;-77
2022/01/05 07:17:33;;;;;;;10.63;2.88;;;5.40;79.60;;;;;;4946565;28;20039;-76
2022/01/05 07:20:01;;;;;;;7.78;2.50;;;5.40;79.70;;;;;;4973558;28;20047;-75
2022/01/05 07:22:27;;;;;;;6.22;2.40;;;5.50;79.70;;;;;;4971334;28;20083;-75
2022/01/05 07:24:58;;;;;;;9.15;2.58;;;5.50;79.70;;;;;;4952097;28;20058;-78
2022/01/05 07:27:25;;;;;;;8.98;2.80;;;5.50;79.60;;;;;;4956159;28;20047;-77
2022/01/05 07:29:52;;;;;;;11.73;2.17;;;5.50;79.70;;;;;;4974539;28;20414;-75
2022/01/05 07:32:19;;;;;;;15.35;4.32;;;5.50;79.70;;;;;;4949534;28;20051;-75
2022/01/05 07:34:47;;;;;;;12.15;2.88;;;5.50;79.70;;;;;;4968180;28;20054;-75
2022/01/05 07:37:15;;;;;;;7.00;2.60;;;5.60;79.50;;;;;;4961759;28;20363;-75
2022/01/05 07:39:41;;;;;;;11.75;2.85;;;5.60;79.10;;;;;;4976046;28;20058;-76
2022/01/05 07:42:10;;;;;;;7.35;2.47;;;5.50;78.90;;;;;;4954031;28;20117;-75
2022/01/05 07:44:37;;;;;;;11.50;2.40;;;5.60;79.10;;;;;;4959525;28;20058;-77
2022/01/05 07:47:06;;;;;;;11.45;3.05;;;5.50;78.90;;;;;;4954919;28;20473;-76
2022/01/05 07:49:34;;;;;;;9.05;3.30;;;5.50;78.90;;;;;;4961261;28;20495;-75
2022/01/05 07:52:01;;;;;;;8.65;2.63;;;5.50;79.10;;;;;;4950237;28;20039;-77
2022/01/05 07:54:28;;;;;;;13.02;3.22;;;5.50;79.30;;;;;;4952668;28;20138;-75
2022/01/05 07:56:54;;;;;;;11.45;2.47;;;5.50;79.70;;;;;;4972951;28;20049;-75
2022/01/05 07:59:21;;;;;;;6.53;2.75;;;5.60;79.70;;;;;;4974857;28;20490;-76
2022/01/05 08:01:48;;;;;;;9.68;2.40;;;5.80;79.90;;;;;;4968307;28;20044;-77
2022/01/05 08:04:16;;;;;;;10.70;3.05;;;5.60;79.80;;;;;;4950484;28;20543;-77
2022/01/05 08:06:43;;;;;;;9.55;2.63;;;5.60;79.70;;;;;;4959164;28;20042;-77
2022/01/05 08:09:12;;;;;;;7.28;2.92;;;5.80;79.80;;;;;;4982058;28;20093;-79
2022/01/05 08:11:39;;;;;;;10.32;3.35;;;5.70;79.70;;;;;;4948409;28;20066;-77
2022/01/05 08:14:06;;;;;;;8.23;3.00;;;5.70;79.60;;;;;;4953638;28;20411;-77
2022/01/05 08:16:32;;;;;;;7.57;2.55;;;5.70;79.50;;;;;;4973721;28;20049;-79
2022/01/05 08:18:59;;;;;;;10.15;3.25;;;5.70;79.60;;;;;;4972921;28;20101;-77
2022/01/05 08:21:26;;;;;;;11.75;3.25;;;5.70;79.60;;;;;;4960960;28;20051;-79
2022/01/05 08:23:53;;;;;;;7.60;3.13;;;5.70;79.60;;;;;;4977416;28;20050;-80
2022/01/05 08:26:20;;;;;;;14.50;3.75;;;5.80;79.70;;;;;;4969339;28;20069;-78
2022/01/05 08:28:46;;;;;;;13.40;3.13;;;5.80;79.70;;;;;;4959496;28;20057;-76
2022/01/05 08:31:14;;;;;;;14.02;4.32;;;5.80;79.80;;;;;;4954032;28;20058;-78
2022/01/05 08:33:46;;;;;;;9.50;2.65;;;5.80;79.70;;;;;;4991374;28;20039;-78
2022/01/05 08:36:13;;;;;;;9.68;2.60;;;5.80;79.60;;;;;;4972200;28;20046;-76
2022/01/05 08:38:40;;;;;;;10.50;3.85;;;5.90;79.80;;;;;;4944810;28;20416;-77
2022/01/05 08:41:07;;;;;;;10.25;3.08;;;5.90;79.70;;;;;;4968101;28;20415;-77
2022/01/05 08:43:33;;;;;;;6.82;3.20;;;5.90;79.80;;;;;;4967713;28;20550;-77
2022/01/05 08:46:01;;;;;;;16.50;3.78;;;5.90;79.70;;;;;;4988473;28;20358;-78
2022/01/05 08:48:28;;;;;;;9.70;3.50;;;6.00;79.70;;;;;;4973989;28;20062;-78
2022/01/05 08:50:55;;;;;;;11.75;3.42;;;6.00;79.70;;;;;;4978820;23;20042;-52
2022/01/05 08:53:22;;;;;;;8.80;3.70;;;6.00;79.60;;;;;;4982297;28;20554;-52
2022/01/05 08:55:50;;;;;;;13.27;3.50;;;6.10;79.60;;;;;;4964362;28;20098;-52
2022/01/05 08:58:18;;;;;;;9.95;5.05;;;6.10;79.30;;;;;;4967796;28;20043;-53
2022/01/05 09:00:45;;;;;;;10.80;3.60;;;6.10;79.40;;;;;;4979476;28;20496;-49
2022/01/05 09:03:14;;;;;;;11.85;4.00;;;6.10;79.70;;;;;;4991729;28;20739;-53
2022/01/05 09:05:42;;;;;;;12.77;4.07;;;6.20;79.90;;;;;;4973706;28;20142;-50
2022/01/05 09:08:09;;;;;;;9.30;3.20;;;6.20;79.60;;;;;;4980169;28;20384;-53
2022/01/05 09:10:37;;;;;;;12.15;3.58;;;6.20;79.70;;;;;;4982535;28;20038;-51
2022/01/05 09:13:04;;;;;;;10.18;3.40;;;6.20;79.60;;;;;;4980970;28;20510;-52
2022/01/05 09:15:33;;;;;;;12.18;4.13;;;6.20;79.70;;;;;;4968234;28;20047;-51
2022/01/05 09:18:01;;;;;;;14.30;3.80;;;6.30;80.00;;;;;;4973369;28;20585;-53
2022/01/05 09:20:28;;;;;;;9.23;3.63;;;6.30;79.10;;;;;;4990268;28;20070;-50
2022/01/05 09:22:57;;;;;;;12.65;4.15;;;6.40;79.10;;;;;;4991195;28;20744;-54
2022/01/05 09:25:24;;;;;;;11.07;3.55;;;6.30;79.10;;;;;;4976856;28;20039;-49
2022/01/05 09:27:52;;;;;;;5.90;3.28;;;6.40;79.20;;;;;;4978563;28;20502;-53
2022/01/05 09:30:20;;;;;;;15.90;4.72;;;6.40;79.20;;;;;;4990288;28;20113;-53
2022/01/05 09:32:47;;;;;;;12.13;4.38;;;6.40;79.10;;;;;;4981186;28;20038;-50
2022/01/05 09:35:18;;;;;;;11.13;3.47;;;6.40;79.00;;;;;;4966080;28;20042;-51
2022/01/05 09:37:53;;;;;;;10.02;4.50;;;6.40;79.00;;;;;;4973126;28;20074;-49
2022/01/05 09:43:07;;;;;;;10.82;3.55;;;6.50;79.00;;;;;;4991109;28;20113;-51
2022/01/05 09:45:36;;;;;;;8.30;4.18;;;6.50;78.80;;;;;;4973456;28;20042;-52
2022/01/05 09:48:38;;;;;;;11.88;3.22;;;6.50;78.90;;;;;;4984388;28;20160;-49
2022/01/05 09:51:10;;;;;;;15.20;3.58;;;6.50;78.80;;;;;;4982302;28;20599;-51
2022/01/05 09:53:40;;;;;;;11.35;3.17;;;6.50;78.80;;;;;;4987692;28;20050;-50
2022/01/05 09:56:29;;;;;;;8.15;3.63;;;6.50;78.80;;;;;;4976462;28;20463;-53
2022/01/05 09:59:04;;;;;;;17.50;4.18;;;6.50;78.80;;;;;;4991461;28;20053;-49
2022/01/05 10:01:37;;;;;;;8.88;3.40;;;6.50;78.80;;;;;;4981078;28;20050;-51
2022/01/05 10:04:04;;;;;;;7.95;3.78;;;6.60;78.80;;;;;;4969665;28;20043;-50
2022/01/05 10:06:36;;;;;;;8.35;3.63;;;6.60;79.00;;;;;;4982058;28;20064;-48
2022/01/05 10:09:05;;;;;;;9.45;4.10;;;6.60;79.10;;;;;;4991256;28;20057;-51
2022/01/05 10:11:32;;;;;;;10.35;3.70;;;6.70;78.80;;;;;;4971884;28;20046;-51
2022/01/05 10:13:58;;;;;;;9.88;3.63;;;6.70;78.90;;;;;;4969239;28;20586;-49
2022/01/05 10:16:25;;;;;;;9.77;3.90;;;6.70;78.80;;;;;;4981623;28;20092;-51
2022/01/05 10:18:53;;;;;;;10.93;3.88;;;6.70;78.90;;;;;;4991334;28;20055;-51
2022/01/05 10:21:20;;;;;;;13.60;3.97;;;6.80;79.10;;;;;;4971878;28;20047;-50
2022/01/05 10:23:49;;;;;;;8.38;3.63;;;6.80;79.10;;;;;;4981236;28;20046;-48
2022/01/05 10:26:34;;;;;;;10.25;3.92;;;6.90;79.10;;;;;;4988891;28;20034;-47
2022/01/05 10:29:04;;;;;;;7.13;3.38;;;6.90;79.00;;;;;;4991143;28;20046;-51
2022/01/05 10:31:34;;;;;;;10.48;3.72;;;7.00;79.00;;;;;;4979496;28;20046;-51
2022/01/05 10:34:21;;;;;;;7.85;3.97;;;7.00;78.70;;;;;;4968169;28;20051;-50
2022/01/05 10:36:54;;;;;;;8.30;3.58;;;7.10;78.50;;;;;;4970161;28;20109;-50
2022/01/05 10:39:31;;;;;;;7.30;3.00;;;7.10;78.80;;;;;;4971372;28;20089;-49
2022/01/05 10:42:07;;;;;;;10.68;4.50;;;7.20;78.80;;;;;;4964905;28;20052;-53
2022/01/05 10:44:34;;;;;;;7.32;3.28;;;7.20;78.80;;;;;;4972256;28;20450;-51
2022/01/05 10:47:01;;;;;;;11.88;3.42;;;7.30;78.90;;;;;;4980949;28;20399;-53
2022/01/05 10:49:32;;;;;;;9.90;3.67;;;7.30;78.60;;;;;;4991285;28;20093;-53
2022/01/05 10:52:22;;;;;;;12.15;3.65;;;7.40;78.50;;;;;;4974487;28;20042;-50
2022/01/05 10:54:50;;;;;;;8.15;3.20;;;7.40;78.70;;;;;;4987605;28;20042;-49
2022/01/05 10:57:18;;;;;;;11.23;3.80;;;7.50;78.80;;;;;;4986365;28;20047;-50
2022/01/05 10:59:48;;;;;;;8.82;3.53;;;7.50;78.90;;;;;;4956719;28;20101;-50
2022/01/05 11:02:25;;;;;;;8.13;3.35;;;7.60;78.80;;;;;;4988649;28;20042;-54
2022/01/05 11:05:02;;;;;;;12.00;3.20;;;7.70;78.90;;;;;;4992460;28;20494;-53
2022/01/05 11:07:31;;;;;;;7.22;3.55;;;7.80;78.60;;;;;;4975542;28;20043;-54
2022/01/05 11:10:01;;;;;;;5.45;3.67;;;7.80;78.50;;;;;;4970745;28;20561;-54
2022/01/05 11:12:32;;;;;;;11.27;4.32;;;7.90;78.70;;;;;;4991013;28;20506;-52
2022/01/05 11:15:24;;;;;;;9.15;4.38;;;8.00;77.90;;;;;;4989365;28;20058;-49
2022/01/05 11:18:13;;;;;;;10.07;3.63;;;8.00;77.40;;;;;;4973760;28;20458;-52
2022/01/05 11:20:51;;;;;;;8.80;3.50;;;8.00;77.00;;;;;;4980118;28;20691;-50
2022/01/05 11:23:26;;;;;;;12.23;4.63;;;8.00;77.20;;;;;;4988714;28;20097;-54
2022/01/05 11:25:55;;;;;;;9.93;3.78;;;8.00;77.30;;;;;;4973231;28;20039;-50
2022/01/05 11:28:24;;;;;;;11.88;3.75;;;8.00;77.50;;;;;;4967936;28;20094;-54
2022/01/05 11:30:53;;;;;;;9.30;4.07;;;8.00;77.50;;;;;;4984161;28;20042;-54
2022/01/05 11:33:21;;;;;;;9.10;3.80;;;8.00;77.30;;;;;;4994101;28;20073;-50
2022/01/05 11:35:49;;;;;;;14.25;3.70;;;8.10;77.50;;;;;;4990801;28;20465;-50
2022/01/05 11:38:17;;;;;;;10.10;4.07;;;8.10;77.20;;;;;;4987495;28;20556;-52
2022/01/05 11:40:52;;;;;;;14.68;4.38;;;8.10;77.20;;;;;;4992418;28;20077;-50
2022/01/05 11:43:32;;;;;;;10.90;3.70;;;8.10;77.00;;;;;;4993535;28;20508;-52
2022/01/05 11:46:15;;;;;;;11.77;4.63;;;8.00;76.90;;;;;;4972224;28;20055;-53
2022/01/05 11:49:08;;;;;;;8.50;4.22;;;8.10;76.90;;;;;;4972425;28;20457;-53
2022/01/05 11:51:45;;;;;;;;;;;8.10;76.40;;;;;;4980876;28;20406;-50
2022/01/05 11:54:26;;;;;;;7.43;3.63;;;8.10;77.10;;;;;;4972888;28;20360;-54
2022/01/05 11:57:00;;;;;;;12.73;4.70;;;8.10;76.40;;;;;;4978919;28;20498;-51
2022/01/05 11:59:47;;;;;;;10.65;3.83;;;8.10;76.80;;;;;;4992076;28;20101;-51
2022/01/05 12:02:17;;;;;;;9.27;3.83;;;8.10;76.60;;;;;;4990125;28;20054;-54
2022/01/05 12:04:56;;;;;;;11.18;4.13;;;8.10;76.90;;;;;;4963239;28;20122;-54
2022/01/05 12:07:45;;;;;;;9.60;4.13;;;8.20;76.30;;;;;;4982422;28;20046;-54
2022/01/05 12:10:22;;;;;;;8.82;4.00;;;8.20;76.00;;;;;;4976027;28;20074;-54
2022/01/05 12:13:05;;;;;;;11.65;3.35;;;8.30;75.80;;;;;;4967114;28;20058;-50
2022/01/05 12:15:57;;;;;;;9.27;3.55;;;8.30;75.40;;;;;;4977805;28;20046;-51
2022/01/05 12:18:30;;;;;;;8.32;3.40;;;8.30;75.40;;;;;;4981713;28;20453;-53
2022/01/05 12:20:58;;;;;;;10.25;3.85;;;8.30;75.70;;;;;;4974987;28;20047;-54
2022/01/05 12:23:26;;;;;;;12.00;4.57;;;8.30;75.50;;;;;;4978339;28;20070;-49
2022/01/05 12:26:02;;;;;;;10.20;4.07;;;8.30;75.50;;;;;;4980008;28;20038;-54
2022/01/05 12:28:31;;;;;;;6.85;3.90;;;8.30;75.00;;;;;;4990485;28;20483;-50
2022/01/05 12:30:59;;;;;;;8.18;4.07;;;8.40;75.50;;;;;;4980454;28;20570;-54
2022/01/05 12:33:45;;;;;;;13.65;5.15;;;8.40;75.50;;;;;;4976987;28;20126;-50
2022/01/05 12:36:15;;;;;;;10.70;4.55;;;8.40;74.50;;;;;;4981670;28;20049;-54
2022/01/05 12:38:47;;;;;;;12.00;4.43;;;8.40;75.10;;;;;;4984621;28;20117;-53
2022/01/05 12:41:16;;;;;;;;;;;8.40;75.10;;;;;;4975996;28;20043;-52
2022/01/05 12:43:45;;;;;;;9.65;3.80;;;8.50;75.20;;;;;;4977612;28;19922;-54
2022/01/05 12:46:13;;;;;;;11.02;3.95;;;8.50;75.20;;;;;;4986048;28;20034;-53
2022/01/05 12:48:43;;;;;;;14.13;3.90;;;8.50;75.00;;;;;;4970066;28;20101;-49
2022/01/05 12:51:16;;;;;;;9.27;3.53;;;8.50;74.60;;;;;;4964738;28;20392;-51
2022/01/05 12:54:08;;;;;;;6.38;3.08;;;8.50;74.60;;;;;;4972752;28;20042;-54
2022/01/05 12:56:44;;;;;;;12.00;4.15;;;8.50;74.00;;;;;;4969433;28;20046;-53
2022/01/05 12:59:21;;;;;;;7.28;3.72;;;8.50;74.10;;;;;;4967732;28;20047;-53
2022/01/05 13:01:51;;;;;;;8.13;4.22;;;8.50;74.10;;;;;;4965489;28;20141;-54
2022/01/05 13:04:23;;;;;;;10.95;3.22;;;8.50;74.20;;;;;;4973191;28;20042;-49